createdAt,value
2017-04-18T00:00:37.328Z,99.99
2017-04-18T00:01:18.215Z,99.99
2017-04-18T00:01:59.106Z,99.99
2017-04-18T00:02:39.946Z,99.99
2017-04-18T00:03:20.805Z,99.99
2017-04-18T00:04:01.669Z,99.99
2017-04-18T00:04:42.550Z,99.99
2017-04-18T00:05:23.434Z,99.99
2017-04-18T00:06:04.328Z,99.99
2017-04-18T00:06:45.195Z,99.99
2017-04-18T00:07:26.084Z,99.99
2017-04-18T00:08:06.959Z,99.99
2017-04-18T00:08:47.841Z,99.99
2017-04-18T00:09:28.716Z,99.99
2017-04-18T00:10:09.598Z,99.99
2017-04-18T00:10:50.463Z,99.99
2017-04-18T00:11:31.323Z,99.99
2017-04-18T00:12:12.206Z,99.99
2017-04-18T00:12:53.111Z,99.99
2017-04-18T00:13:33.975Z,99.99
2017-04-18T00:14:14.853Z,99.99
2017-04-18T00:14:55.723Z,99.99
2017-04-18T00:15:36.598Z,99.99
2017-04-18T00:16:17.488Z,99.99
2017-04-18T00:16:58.356Z,99.99
2017-04-18T00:17:39.223Z,99.99
2017-04-18T00:18:20.076Z,99.99
2017-04-18T00:19:00.921Z,99.99
2017-04-18T00:19:41.783Z,99.99
2017-04-18T00:20:22.635Z,99.99
2017-04-18T00:21:03.489Z,99.99
2017-04-18T00:21:44.362Z,99.99
2017-04-18T00:22:25.240Z,99.99
2017-04-18T00:23:06.146Z,99.99
2017-04-18T00:23:47.015Z,99.99
2017-04-18T00:24:27.867Z,99.99
2017-04-18T00:25:08.743Z,99.99
2017-04-18T00:25:49.671Z,99.99
2017-04-18T00:26:30.553Z,99.99
2017-04-18T00:27:11.417Z,99.99
2017-04-18T00:27:52.265Z,99.99
2017-04-18T00:28:33.137Z,99.99
2017-04-18T00:29:14.007Z,99.99
2017-04-18T00:29:54.876Z,99.99
2017-04-18T00:30:35.746Z,99.99
2017-04-18T00:31:16.613Z,99.99
2017-04-18T00:31:57.479Z,99.99
2017-04-18T00:32:38.353Z,99.99
2017-04-18T00:33:19.254Z,99.99
2017-04-18T00:34:00.110Z,99.99
2017-04-18T00:34:40.985Z,99.99
2017-04-18T00:35:21.819Z,99.99
2017-04-18T00:36:02.698Z,99.99
2017-04-18T00:36:43.574Z,99.99
2017-04-18T00:37:24.468Z,99.99
2017-04-18T00:38:05.331Z,99.99
2017-04-18T00:38:46.200Z,99.99
2017-04-18T00:39:27.065Z,99.99
2017-04-18T00:40:07.948Z,99.99
2017-04-18T00:40:48.781Z,99.99
2017-04-18T00:41:29.654Z,99.99
2017-04-18T00:42:10.615Z,99.99
2017-04-18T00:42:51.496Z,99.99
2017-04-18T00:43:32.391Z,99.99
2017-04-18T00:44:13.272Z,99.99
2017-04-18T00:44:54.154Z,99.99
2017-04-18T00:45:35.036Z,99.99
2017-04-18T00:46:15.900Z,99.99
2017-04-18T00:46:56.805Z,99.99
2017-04-18T00:47:37.656Z,99.99
2017-04-18T00:48:18.531Z,99.99
2017-04-18T00:48:59.411Z,99.99
2017-04-18T00:49:40.274Z,99.99
2017-04-18T00:50:21.130Z,99.99
2017-04-18T00:51:02.013Z,99.99
2017-04-18T00:51:42.864Z,99.99
2017-04-18T00:52:23.750Z,99.99
2017-04-18T00:53:04.633Z,99.99
2017-04-18T00:53:45.475Z,99.99
2017-04-18T00:54:26.338Z,99.99
2017-04-18T00:55:07.217Z,99.99
2017-04-18T00:55:48.047Z,99.99
2017-04-18T00:56:28.914Z,99.99
2017-04-18T00:57:09.773Z,99.99
2017-04-18T00:57:50.635Z,99.99
2017-04-18T00:58:31.479Z,99.99
2017-04-18T00:59:12.354Z,99.99
2017-04-18T00:59:53.209Z,99.99
2017-04-18T01:00:34.063Z,99.99
2017-04-18T01:01:14.943Z,99.99
2017-04-18T01:01:55.811Z,99.99
2017-04-18T01:02:36.687Z,99.99
2017-04-18T01:03:17.572Z,99.99
2017-04-18T01:03:58.435Z,99.99
2017-04-18T01:04:39.297Z,99.99
2017-04-18T01:05:20.155Z,99.99
2017-04-18T01:06:01.019Z,99.99
2017-04-18T01:06:41.890Z,99.99
2017-04-18T01:07:22.761Z,99.99
2017-04-18T01:08:03.656Z,99.99
2017-04-18T01:08:44.534Z,99.99
2017-04-18T01:09:25.395Z,99.99
2017-04-18T01:10:06.263Z,99.99
2017-04-18T01:10:47.141Z,99.99
2017-04-18T01:11:28.012Z,99.99
2017-04-18T01:12:08.889Z,99.99
2017-04-18T01:12:49.764Z,99.99
2017-04-18T01:13:30.642Z,99.99
2017-04-18T01:14:11.521Z,99.99
2017-04-18T01:14:52.387Z,99.99
2017-04-18T01:15:33.270Z,99.99
2017-04-18T01:16:14.144Z,99.99
2017-04-18T01:16:55.017Z,99.99
2017-04-18T01:17:35.899Z,99.99
2017-04-18T01:18:16.754Z,99.99
2017-04-18T01:18:57.617Z,99.99
2017-04-18T01:19:38.488Z,99.99
2017-04-18T01:20:19.349Z,99.99
2017-04-18T01:21:00.213Z,99.99
2017-04-18T01:21:41.097Z,99.99
2017-04-18T01:22:21.975Z,99.99
2017-04-18T01:23:02.863Z,99.99
2017-04-18T01:23:43.722Z,99.99
2017-04-18T01:24:24.628Z,99.99
2017-04-18T01:25:05.470Z,99.99
2017-04-18T01:25:46.331Z,99.99
2017-04-18T01:26:27.189Z,99.99
2017-04-18T01:27:08.066Z,99.99
2017-04-18T01:27:48.945Z,99.99
2017-04-18T01:28:29.829Z,99.99
2017-04-18T01:29:10.694Z,99.99
2017-04-18T01:29:51.540Z,99.99
2017-04-18T01:30:32.421Z,99.99
2017-04-18T01:31:13.287Z,99.99
2017-04-18T01:33:22.517Z,99.99
2017-04-18T01:34:04.377Z,99.99
2017-04-18T01:34:45.256Z,99.99
2017-04-18T01:35:26.147Z,99.99
2017-04-18T01:36:07.019Z,99.99
2017-04-18T01:36:47.902Z,99.99
2017-04-18T01:37:28.783Z,99.99
2017-04-18T01:38:09.657Z,99.99
2017-04-18T01:38:50.537Z,99.99
2017-04-18T01:39:31.403Z,99.99
2017-04-18T01:40:12.287Z,99.99
2017-04-18T01:40:53.171Z,99.99
2017-04-18T01:41:34.044Z,99.99
2017-04-18T01:42:14.918Z,99.99
2017-04-18T01:42:55.786Z,99.99
2017-04-18T01:43:36.679Z,99.99
2017-04-18T01:44:20.388Z,99.99
2017-04-18T01:45:01.096Z,99.99
2017-04-18T01:45:41.957Z,99.99
2017-04-18T01:46:22.826Z,99.99
2017-04-18T01:47:03.696Z,99.99
2017-04-18T01:47:44.567Z,99.99
2017-04-18T01:48:25.451Z,99.99
2017-04-18T01:49:06.312Z,99.99
2017-04-18T01:49:47.182Z,99.99
2017-04-18T01:50:28.036Z,99.99
2017-04-18T01:51:08.877Z,99.99
2017-04-18T01:51:49.762Z,99.99
2017-04-18T01:52:30.600Z,99.99
2017-04-18T01:53:11.458Z,99.99
2017-04-18T01:53:52.328Z,99.99
2017-04-18T01:54:33.182Z,99.99
2017-04-18T01:55:14.030Z,99.99
2017-04-18T01:55:54.901Z,99.99
2017-04-18T01:56:35.746Z,99.99
2017-04-18T01:57:16.611Z,99.99
2017-04-18T01:57:57.457Z,99.99
2017-04-18T01:58:38.365Z,99.99
2017-04-18T01:59:19.225Z,99.99
2017-04-18T02:00:00.096Z,99.99
2017-04-18T02:00:40.951Z,99.99
2017-04-18T02:01:21.823Z,99.99
2017-04-18T02:02:02.663Z,99.99
2017-04-18T02:02:43.534Z,99.99
2017-04-18T02:03:24.399Z,99.99
2017-04-18T02:04:05.266Z,99.99
2017-04-18T02:04:46.136Z,99.99
2017-04-18T02:05:27.019Z,99.99
2017-04-18T02:06:07.870Z,99.99
2017-04-18T02:06:48.740Z,99.99
2017-04-18T02:07:29.602Z,99.99
2017-04-18T02:08:10.458Z,99.99
2017-04-18T02:08:51.317Z,99.99
2017-04-18T02:09:32.193Z,99.99
2017-04-18T02:10:13.072Z,99.99
2017-04-18T02:10:53.947Z,99.99
2017-04-18T02:11:34.822Z,99.99
2017-04-18T02:12:15.726Z,99.99
2017-04-18T02:14:14.274Z,99.99
2017-04-18T02:14:55.133Z,99.99
2017-04-18T02:15:35.985Z,99.99
2017-04-18T02:16:16.860Z,99.99
2017-04-18T02:16:57.715Z,99.99
2017-04-18T02:17:38.573Z,99.99
2017-04-18T02:18:19.425Z,99.99
2017-04-18T02:19:00.304Z,99.99
2017-04-18T02:19:41.174Z,99.99
2017-04-18T02:20:22.058Z,99.99
2017-04-18T02:21:05.598Z,99.99
2017-04-18T02:21:46.460Z,99.99
2017-04-18T02:22:27.326Z,99.99
2017-04-18T02:23:08.196Z,99.99
2017-04-18T02:23:49.083Z,99.99
2017-04-18T02:24:29.956Z,99.99
2017-04-18T02:25:10.823Z,99.99
2017-04-18T02:25:51.708Z,99.99
2017-04-18T02:26:32.590Z,99.99
2017-04-18T02:27:13.483Z,99.99
2017-04-18T02:27:54.304Z,99.99
2017-04-18T02:28:35.167Z,99.99
2017-04-18T02:29:16.049Z,99.99
2017-04-18T02:29:56.879Z,99.99
2017-04-18T02:30:37.760Z,99.99
2017-04-18T02:31:18.662Z,99.99
2017-04-18T02:31:59.508Z,99.99
2017-04-18T02:32:40.367Z,99.99
2017-04-18T02:33:21.275Z,99.99
2017-04-18T02:34:02.103Z,99.99
2017-04-18T02:34:42.978Z,99.99
2017-04-18T02:35:23.820Z,99.99
2017-04-18T02:36:04.662Z,99.99
2017-04-18T02:36:45.509Z,99.99
2017-04-18T02:37:26.394Z,99.99
2017-04-18T02:38:07.284Z,99.99
2017-04-18T02:38:48.160Z,99.99
2017-04-18T02:39:29.026Z,99.99
2017-04-18T02:40:09.892Z,99.99
2017-04-18T02:40:50.754Z,99.99
2017-04-18T02:41:31.584Z,99.99
2017-04-18T02:42:12.465Z,99.99
2017-04-18T02:42:53.338Z,99.99
2017-04-18T02:43:34.227Z,99.99
2017-04-18T02:44:15.076Z,99.99
2017-04-18T02:44:55.935Z,99.99
2017-04-18T02:45:36.784Z,99.99
2017-04-18T02:46:17.696Z,99.99
2017-04-18T02:46:58.549Z,99.99
2017-04-18T02:47:39.381Z,99.99
2017-04-18T02:48:20.241Z,99.99
2017-04-18T02:49:01.126Z,99.99
2017-04-18T02:49:41.946Z,99.99
2017-04-18T02:50:22.801Z,99.99
2017-04-18T02:51:03.668Z,99.99
2017-04-18T02:51:44.531Z,99.99
2017-04-18T02:52:25.408Z,99.99
2017-04-18T02:53:06.269Z,99.99
2017-04-18T02:53:47.131Z,99.99
2017-04-18T02:54:28.021Z,99.99
2017-04-18T02:55:08.878Z,99.99
2017-04-18T02:55:49.766Z,99.99
2017-04-18T02:56:30.630Z,99.99
2017-04-18T02:57:11.509Z,99.99
2017-04-18T02:57:52.416Z,99.99
2017-04-18T02:58:33.300Z,99.99
2017-04-18T02:59:14.184Z,99.99
2017-04-18T02:59:55.051Z,99.99
2017-04-18T03:00:35.919Z,99.99
2017-04-18T03:01:16.795Z,99.99
2017-04-18T03:01:57.679Z,99.99
2017-04-18T03:02:38.536Z,99.99
2017-04-18T03:03:19.393Z,99.99
2017-04-18T03:04:00.257Z,99.99
2017-04-18T03:04:41.109Z,99.99
2017-04-18T03:05:21.976Z,99.99
2017-04-18T03:06:02.837Z,99.99
2017-04-18T03:06:43.689Z,99.99
2017-04-18T03:07:24.567Z,99.99
2017-04-18T03:08:05.430Z,99.99
2017-04-18T03:08:46.315Z,99.99
2017-04-18T03:09:27.191Z,99.99
2017-04-18T03:10:08.066Z,99.99
2017-04-18T03:10:48.937Z,99.99
2017-04-18T03:11:29.809Z,99.99
2017-04-18T03:12:10.673Z,99.99
2017-04-18T03:12:51.541Z,99.99
2017-04-18T03:13:32.430Z,99.99
2017-04-18T03:14:13.295Z,99.99
2017-04-18T03:14:54.181Z,99.99
2017-04-18T03:15:35.078Z,99.99
2017-04-18T03:16:15.946Z,99.99
2017-04-18T03:16:56.818Z,99.99
2017-04-18T03:17:37.707Z,99.99
2017-04-18T03:18:18.585Z,99.99
2017-04-18T03:18:59.449Z,99.99
2017-04-18T03:19:40.300Z,99.99
2017-04-18T03:20:21.211Z,99.99
2017-04-18T03:21:02.075Z,99.99
2017-04-18T03:21:42.950Z,99.99
2017-04-18T03:22:23.813Z,99.99
2017-04-18T03:23:04.672Z,99.99
2017-04-18T03:23:45.531Z,99.99
2017-04-18T03:24:26.412Z,99.99
2017-04-18T03:25:07.268Z,99.99
2017-04-18T03:25:48.141Z,99.99
2017-04-18T03:26:29.012Z,99.99
2017-04-18T03:27:09.880Z,99.99
2017-04-18T03:27:50.746Z,99.99
2017-04-18T03:28:31.663Z,99.99
2017-04-18T03:29:12.516Z,99.99
2017-04-18T03:29:53.385Z,99.99
2017-04-18T03:30:34.256Z,99.99
2017-04-18T03:31:15.095Z,99.99
2017-04-18T03:31:55.975Z,99.99
2017-04-18T03:32:36.856Z,99.99
2017-04-18T03:33:17.716Z,99.99
2017-04-18T03:33:58.581Z,99.99
2017-04-18T03:34:39.451Z,99.99
2017-04-18T03:35:20.344Z,99.99
2017-04-18T03:36:01.203Z,99.99
2017-04-18T03:36:42.064Z,99.99
2017-04-18T03:37:22.929Z,99.99
2017-04-18T03:38:03.807Z,99.99
2017-04-18T03:38:44.651Z,99.99
2017-04-18T03:39:25.513Z,99.99
2017-04-18T03:40:06.380Z,99.99
2017-04-18T03:40:47.245Z,99.99
2017-04-18T03:41:28.105Z,99.99
2017-04-18T03:42:08.959Z,99.99
2017-04-18T03:42:49.810Z,99.99
2017-04-18T03:43:30.661Z,99.99
2017-04-18T03:44:11.516Z,99.99
2017-04-18T03:44:52.372Z,99.99
2017-04-18T03:45:33.219Z,99.99
2017-04-18T03:46:14.058Z,99.99
2017-04-18T03:46:54.924Z,99.99
2017-04-18T03:47:35.743Z,99.87
2017-04-18T03:48:16.602Z,99.99
2017-04-18T03:48:57.492Z,99.99
2017-04-18T03:49:38.353Z,99.99
2017-04-18T03:50:19.216Z,99.99
2017-04-18T03:51:00.049Z,99.99
2017-04-18T03:51:40.910Z,99.99
2017-04-18T03:52:21.787Z,99.99
2017-04-18T03:53:02.692Z,99.99
2017-04-18T03:53:43.675Z,99.99
2017-04-18T03:54:24.533Z,99.99
2017-04-18T03:55:05.400Z,99.99
2017-04-18T03:55:46.285Z,99.99
2017-04-18T03:56:27.160Z,99.99
2017-04-18T03:57:08.031Z,99.99
2017-04-18T03:57:48.865Z,99.99
2017-04-18T03:58:29.741Z,99.99
2017-04-18T03:59:10.611Z,99.99
2017-04-18T03:59:51.483Z,99.99
2017-04-18T04:00:32.405Z,99.99
2017-04-18T04:01:13.245Z,99.99
2017-04-18T04:01:54.109Z,99.99
2017-04-18T04:02:34.984Z,99.99
2017-04-18T04:03:15.863Z,99.99
2017-04-18T04:03:56.747Z,99.99
2017-04-18T04:04:37.629Z,99.99
2017-04-18T04:05:18.486Z,99.99
2017-04-18T04:05:59.360Z,99.99
2017-04-18T04:06:40.227Z,99.99
2017-04-18T04:07:21.104Z,99.99
2017-04-18T04:08:01.979Z,99.99
2017-04-18T04:08:42.858Z,99.99
2017-04-18T04:09:23.728Z,99.99
2017-04-18T04:10:04.609Z,99.99
2017-04-18T04:10:45.465Z,99.99
2017-04-18T04:11:26.325Z,99.99
2017-04-18T04:12:07.191Z,99.99
2017-04-18T04:12:48.056Z,99.99
2017-04-18T04:13:28.945Z,99.99
2017-04-18T04:14:09.830Z,99.99
2017-04-18T04:14:50.707Z,99.99
2017-04-18T04:15:31.569Z,99.99
2017-04-18T04:16:12.449Z,99.99
2017-04-18T04:16:53.334Z,99.99
2017-04-18T04:17:34.206Z,99.99
2017-04-18T04:18:15.105Z,99.99
2017-04-18T04:18:56.134Z,99.99
2017-04-18T04:19:36.992Z,99.99
2017-04-18T04:20:17.862Z,99.99
2017-04-18T04:20:58.718Z,99.99
2017-04-18T04:21:39.581Z,99.99
2017-04-18T04:22:20.451Z,99.99
2017-04-18T04:23:01.314Z,99.99
2017-04-18T04:23:42.147Z,99.99
2017-04-18T04:24:22.998Z,99.99
2017-04-18T04:25:03.869Z,99.99
2017-04-18T04:25:44.725Z,99.99
2017-04-18T04:26:25.592Z,99.99
2017-04-18T04:27:06.487Z,99.99
2017-04-18T04:27:47.342Z,99.99
2017-04-18T04:28:28.213Z,99.99
2017-04-18T04:29:09.101Z,99.99
2017-04-18T04:29:49.957Z,99.99
2017-04-18T04:30:30.843Z,99.99
2017-04-18T04:31:11.684Z,99.99
2017-04-18T04:31:52.573Z,99.99
2017-04-18T04:32:33.422Z,99.99
2017-04-18T04:33:14.293Z,99.99
2017-04-18T04:33:55.139Z,99.99
2017-04-18T04:34:35.999Z,99.99
2017-04-18T04:35:16.859Z,99.99
2017-04-18T04:35:57.722Z,99.99
2017-04-18T04:36:38.573Z,99.99
2017-04-18T04:37:19.426Z,99.99
2017-04-18T04:38:00.306Z,99.99
2017-04-18T04:38:41.178Z,99.99
2017-04-18T04:39:22.047Z,99.99
2017-04-18T04:40:02.907Z,99.99
2017-04-18T04:40:43.770Z,99.99
2017-04-18T04:41:24.658Z,99.99
2017-04-18T04:42:05.540Z,99.99
2017-04-18T04:42:46.387Z,99.99
2017-04-18T04:43:27.255Z,99.99
2017-04-18T04:44:08.096Z,99.99
2017-04-18T04:44:48.961Z,99.99
2017-04-18T04:45:29.825Z,99.99
2017-04-18T04:46:10.705Z,99.99
2017-04-18T04:46:51.571Z,99.99
2017-04-18T04:47:32.417Z,99.99
2017-04-18T04:48:13.306Z,99.99
2017-04-18T04:48:54.183Z,99.99
2017-04-18T04:49:35.036Z,99.99
2017-04-18T04:50:15.911Z,99.99
2017-04-18T04:50:56.767Z,99.99
2017-04-18T04:51:37.634Z,99.99
2017-04-18T04:52:18.502Z,99.99
2017-04-18T04:53:00.291Z,99.99
2017-04-18T04:53:41.171Z,99.99
2017-04-18T04:54:22.033Z,99.99
2017-04-18T04:55:02.922Z,99.99
2017-04-18T04:55:43.779Z,99.99
2017-04-18T04:56:24.659Z,99.99
2017-04-18T04:57:05.551Z,99.99
2017-04-18T04:57:46.417Z,99.99
2017-04-18T04:58:27.317Z,99.99
2017-04-18T04:59:08.197Z,99.99
2017-04-18T04:59:49.064Z,99.99
2017-04-18T05:00:29.932Z,99.99
2017-04-18T05:01:10.813Z,99.99
2017-04-18T05:01:51.731Z,99.99
2017-04-18T05:02:32.588Z,99.99
2017-04-18T05:03:13.525Z,99.99
2017-04-18T05:03:54.366Z,99.99
2017-04-18T05:04:35.226Z,99.99
2017-04-18T05:05:16.099Z,99.99
2017-04-18T05:05:56.990Z,99.99
2017-04-18T05:06:37.824Z,99.99
2017-04-18T05:07:18.685Z,99.99
2017-04-18T05:07:59.540Z,99.99
2017-04-18T05:08:40.387Z,99.99
2017-04-18T05:09:21.265Z,99.99
2017-04-18T05:10:02.204Z,99.99
2017-04-18T05:10:43.114Z,99.99
2017-04-18T05:11:23.951Z,99.99
2017-04-18T05:12:04.785Z,99.99
2017-04-18T05:12:45.666Z,99.99
2017-04-18T05:13:26.525Z,99.99
2017-04-18T05:14:07.363Z,99.99
2017-04-18T05:14:48.225Z,99.99
2017-04-18T05:15:29.097Z,99.99
2017-04-18T05:16:09.929Z,99.99
2017-04-18T05:16:50.792Z,99.99
2017-04-18T05:17:31.699Z,99.99
2017-04-18T05:18:12.568Z,99.99
2017-04-18T05:18:53.463Z,99.99
2017-04-18T05:19:34.299Z,99.99
2017-04-18T05:20:15.200Z,99.99
2017-04-18T05:20:56.025Z,99.99
2017-04-18T05:21:36.897Z,99.99
2017-04-18T05:22:17.753Z,99.99
2017-04-18T05:22:58.631Z,99.99
2017-04-18T05:23:39.477Z,99.99
2017-04-18T05:24:20.355Z,99.99
2017-04-18T05:25:01.233Z,99.99
2017-04-18T05:25:42.093Z,99.99
2017-04-18T05:26:22.936Z,99.99
2017-04-18T05:27:03.793Z,99.99
2017-04-18T05:27:44.674Z,99.99
2017-04-18T05:28:25.544Z,99.99
2017-04-18T05:29:06.434Z,99.99
2017-04-18T05:29:47.292Z,99.99
2017-04-18T05:31:25.664Z,99.99
2017-04-18T05:32:06.558Z,99.99
2017-04-18T05:34:13.958Z,99.99
2017-04-18T05:34:54.801Z,99.99
2017-04-18T05:35:35.674Z,99.99
2017-04-18T05:36:16.542Z,99.99
2017-04-18T05:36:57.413Z,99.99
2017-04-18T05:37:38.289Z,99.99
2017-04-18T05:38:19.169Z,99.91
2017-04-18T05:39:00.052Z,99.99
2017-04-18T05:39:40.903Z,99.01
2017-04-18T05:40:21.768Z,99.06
2017-04-18T05:41:02.635Z,99.15
2017-04-18T05:41:43.528Z,98.77
2017-04-18T05:42:24.397Z,98.21
2017-04-18T05:43:05.277Z,98.21
2017-04-18T05:43:46.171Z,98.02
2017-04-18T05:44:27.011Z,98.21
2017-04-18T05:45:07.884Z,97.92
2017-04-18T05:45:48.759Z,97.45
2017-04-18T05:46:29.636Z,97.54
2017-04-18T05:47:10.508Z,97.07
2017-04-18T05:47:51.383Z,97.31
2017-04-18T05:48:32.242Z,97.07
2017-04-18T05:49:13.108Z,97.12
2017-04-18T05:49:53.977Z,96.22
2017-04-18T05:50:34.826Z,97.07
2017-04-18T05:51:16.410Z,97.64
2017-04-18T05:51:57.301Z,97.45
2017-04-18T05:52:38.169Z,97.26
2017-04-18T05:53:19.071Z,97.26
2017-04-18T05:53:59.944Z,98.21
2017-04-18T05:54:40.808Z,98.49
2017-04-18T05:55:21.678Z,98.39
2017-04-18T05:56:02.544Z,99.06
2017-04-18T05:56:43.451Z,99.44
2017-04-18T05:57:24.326Z,98.96
2017-04-18T05:58:05.182Z,99.91
2017-04-18T05:58:46.047Z,99.99
2017-04-18T05:59:26.909Z,98.96
2017-04-18T06:00:07.775Z,99.15
2017-04-18T06:00:48.631Z,99.25
2017-04-18T06:01:29.481Z,98.96
2017-04-18T06:02:10.343Z,99.34
2017-04-18T06:02:51.202Z,98.96
2017-04-18T06:03:32.064Z,98.3
2017-04-18T06:04:12.919Z,98.87
2017-04-18T06:04:53.782Z,99.99
2017-04-18T06:05:34.632Z,99.25
2017-04-18T06:06:15.495Z,99.15
2017-04-18T06:06:56.345Z,98.77
2017-04-18T06:07:37.207Z,99.06
2017-04-18T06:08:18.059Z,98.02
2017-04-18T06:08:58.925Z,98.02
2017-04-18T06:09:39.791Z,98.39
2017-04-18T06:10:20.638Z,98.02
2017-04-18T06:11:01.571Z,98.21
2017-04-18T06:11:42.459Z,98.58
2017-04-18T06:12:23.310Z,98.68
2017-04-18T06:13:04.167Z,97.83
2017-04-18T06:13:45.026Z,98.11
2017-04-18T06:14:25.886Z,97.64
2017-04-18T06:15:06.748Z,97.92
2017-04-18T06:15:47.640Z,98.3
2017-04-18T06:16:28.532Z,97.26
2017-04-18T06:17:09.404Z,96.88
2017-04-18T06:17:50.273Z,97.07
2017-04-18T06:18:31.223Z,96.78
2017-04-18T06:19:12.071Z,96.88
2017-04-18T06:19:52.940Z,96.5
2017-04-18T06:20:33.808Z,96.69
2017-04-18T06:21:14.663Z,96.5
2017-04-18T06:21:55.539Z,96.12
2017-04-18T06:22:36.382Z,96.41
2017-04-18T06:23:17.232Z,96.03
2017-04-18T06:23:58.093Z,95.65
2017-04-18T06:24:38.964Z,95.55
2017-04-18T06:25:19.818Z,94.98
2017-04-18T06:26:00.673Z,95.07
2017-04-18T06:26:41.538Z,94.32
2017-04-18T06:27:22.381Z,94.7
2017-04-18T06:28:03.258Z,94.89
2017-04-18T06:28:44.124Z,93.75
2017-04-18T06:29:25.020Z,93.27
2017-04-18T06:30:05.888Z,93.65
2017-04-18T06:30:46.770Z,93.75
2017-04-18T06:31:27.642Z,93.37
2017-04-18T06:32:08.517Z,92.99
2017-04-18T06:32:49.372Z,93.08
2017-04-18T06:33:30.261Z,92.38
2017-04-18T06:34:11.159Z,92.57
2017-04-18T06:34:52.032Z,91.95
2017-04-18T06:35:32.903Z,92.8
2017-04-18T06:36:13.746Z,92.85
2017-04-18T06:36:54.609Z,92.14
2017-04-18T06:37:35.486Z,92.42
2017-04-18T06:38:16.379Z,92.42
2017-04-18T06:38:57.253Z,92.14
2017-04-18T06:39:38.131Z,92.61
2017-04-18T06:40:18.994Z,92.61
2017-04-18T06:40:59.869Z,91.9
2017-04-18T06:41:40.708Z,92.18
2017-04-18T06:42:21.565Z,91.66
2017-04-18T06:43:02.414Z,91.71
2017-04-18T06:43:43.294Z,91.9
2017-04-18T06:44:24.177Z,91.42
2017-04-18T06:45:05.062Z,90.19
2017-04-18T06:45:45.926Z,90.38
2017-04-18T06:46:26.806Z,90.38
2017-04-18T06:47:07.663Z,90.38
2017-04-18T06:47:48.525Z,90.38
2017-04-18T06:48:29.396Z,90.1
2017-04-18T06:49:10.253Z,89.81
2017-04-18T06:49:51.171Z,90.29
2017-04-18T06:50:32.043Z,90.38
2017-04-18T06:51:13.892Z,90.19
2017-04-18T06:51:54.773Z,90.1
2017-04-18T06:52:35.651Z,90.48
2017-04-18T06:53:16.507Z,90.95
2017-04-18T06:53:57.371Z,90.91
2017-04-18T06:54:38.232Z,90.43
2017-04-18T06:55:19.106Z,90.95
2017-04-18T06:55:59.987Z,91.33
2017-04-18T06:56:40.893Z,90.48
2017-04-18T06:57:21.779Z,89.81
2017-04-18T06:58:02.654Z,89.91
2017-04-18T06:58:43.539Z,89.43
2017-04-18T06:59:24.420Z,88.68
2017-04-18T07:00:05.298Z,88.29
2017-04-18T07:00:46.167Z,88.77
2017-04-18T07:01:27.037Z,88.01
2017-04-18T07:02:07.917Z,88.68
2017-04-18T07:02:48.800Z,87.92
2017-04-18T07:03:29.669Z,88.2
2017-04-18T07:04:10.537Z,88.2
2017-04-18T07:04:51.409Z,89.15
2017-04-18T07:05:32.286Z,90
2017-04-18T07:06:13.171Z,89.91
2017-04-18T07:06:54.074Z,89.91
2017-04-18T07:07:34.931Z,90.38
2017-04-18T07:08:15.890Z,90.29
2017-04-18T07:08:56.723Z,90.1
2017-04-18T07:09:37.593Z,89.62
2017-04-18T07:10:18.467Z,89.25
2017-04-18T07:10:59.322Z,89.34
2017-04-18T07:11:40.196Z,88.87
2017-04-18T07:12:21.063Z,88.68
2017-04-18T07:13:01.945Z,88.68
2017-04-18T07:13:42.824Z,89.34
2017-04-18T07:14:23.704Z,88.87
2017-04-18T07:15:04.575Z,89.34
2017-04-18T07:15:45.452Z,89.34
2017-04-18T07:16:26.331Z,89.34
2017-04-18T07:17:07.207Z,89.62
2017-04-18T07:17:48.091Z,89.91
2017-04-18T07:18:28.969Z,89.81
2017-04-18T07:19:09.835Z,89.91
2017-04-18T07:19:50.705Z,89.62
2017-04-18T07:20:31.577Z,89.72
2017-04-18T07:21:12.466Z,89.81
2017-04-18T07:21:53.337Z,89.81
2017-04-18T07:22:34.210Z,89.72
2017-04-18T07:23:15.364Z,89.81
2017-04-18T07:23:56.243Z,89.25
2017-04-18T07:24:37.100Z,89.25
2017-04-18T07:25:17.963Z,88.96
2017-04-18T07:25:58.875Z,88.77
2017-04-18T07:26:40.392Z,88.01
2017-04-18T07:27:21.309Z,88.2
2017-04-18T07:28:02.226Z,89.34
2017-04-18T07:28:43.116Z,89.39
2017-04-18T07:29:23.996Z,88.1
2017-04-18T07:30:04.879Z,87.35
2017-04-18T07:30:45.758Z,87.45
2017-04-18T07:31:26.620Z,87.63
2017-04-18T07:32:07.505Z,88.1
2017-04-18T07:32:48.403Z,88.77
2017-04-18T07:33:29.280Z,88.58
2017-04-18T07:34:10.161Z,88.29
2017-04-18T07:34:51.040Z,88.2
2017-04-18T07:35:31.915Z,88.48
2017-04-18T07:36:12.807Z,88.2
2017-04-18T07:36:53.667Z,88.2
2017-04-18T07:37:34.628Z,88.29
2017-04-18T07:38:15.462Z,88.2
2017-04-18T07:38:56.332Z,88.68
2017-04-18T07:39:37.208Z,88.96
2017-04-18T07:40:18.067Z,88.77
2017-04-18T07:40:58.936Z,88.77
2017-04-18T07:41:39.813Z,88.68
2017-04-18T07:42:20.683Z,88.29
2017-04-18T07:43:01.564Z,88.48
2017-04-18T07:43:42.439Z,87.73
2017-04-18T07:44:23.318Z,87.73
2017-04-18T07:45:04.185Z,88.2
2017-04-18T07:45:45.056Z,87.54
2017-04-18T07:46:25.932Z,87.73
2017-04-18T07:47:06.810Z,88.01
2017-04-18T07:47:47.679Z,87.73
2017-04-18T07:48:28.565Z,87.54
2017-04-18T07:49:09.440Z,87.92
2017-04-18T07:49:50.332Z,87.54
2017-04-18T07:50:31.212Z,87.25
2017-04-18T07:51:12.086Z,87.73
2017-04-18T07:51:52.954Z,88.01
2017-04-18T07:52:33.832Z,88.01
2017-04-18T07:53:14.732Z,87.25
2017-04-18T07:53:55.641Z,87.45
2017-04-18T07:54:36.515Z,87.25
2017-04-18T07:55:17.391Z,86.97
2017-04-18T07:55:58.277Z,86.21
2017-04-18T07:56:39.149Z,87.25
2017-04-18T07:57:20.030Z,87.92
2017-04-18T07:58:00.874Z,88.1
2017-04-18T07:58:41.739Z,88.1
2017-04-18T07:59:22.614Z,88.1
2017-04-18T08:00:03.505Z,88.01
2017-04-18T08:00:44.407Z,87.82
2017-04-18T08:01:25.278Z,88.68
2017-04-18T08:02:06.151Z,88.77
2017-04-18T08:02:47.025Z,87.92
2017-04-18T08:03:27.907Z,88.29
2017-04-18T08:04:08.790Z,88.1
2017-04-18T08:04:49.651Z,88.1
2017-04-18T08:05:30.521Z,87.73
2017-04-18T08:06:11.415Z,87.54
2017-04-18T08:06:52.298Z,87.35
2017-04-18T08:07:33.156Z,87.11
2017-04-18T08:08:14.028Z,86.49
2017-04-18T08:08:54.898Z,87.25
2017-04-18T08:09:35.761Z,87.35
2017-04-18T08:10:16.616Z,87.16
2017-04-18T08:10:57.462Z,87.35
2017-04-18T08:11:38.338Z,87.06
2017-04-18T08:12:19.183Z,87.16
2017-04-18T08:13:00.053Z,87.16
2017-04-18T08:13:40.932Z,87.06
2017-04-18T08:14:22.762Z,86.82
2017-04-18T08:15:03.633Z,86.25
2017-04-18T08:15:44.509Z,86.16
2017-04-18T08:16:25.376Z,85.21
2017-04-18T08:17:06.265Z,85.21
2017-04-18T08:17:47.148Z,84.83
2017-04-18T08:18:28.020Z,84.17
2017-04-18T08:19:08.884Z,84.45
2017-04-18T08:19:49.755Z,84.36
2017-04-18T08:20:30.625Z,84.74
2017-04-18T08:21:11.476Z,84.92
2017-04-18T08:21:52.341Z,84.74
2017-04-18T08:22:33.186Z,84.74
2017-04-18T08:23:14.044Z,85.3
2017-04-18T08:23:54.913Z,84.55
2017-04-18T08:24:35.795Z,84.55
2017-04-18T08:25:16.683Z,84.45
2017-04-18T08:25:57.563Z,83.31
2017-04-18T08:26:38.436Z,82.97
2017-04-18T08:27:19.311Z,82.27
2017-04-18T08:28:00.190Z,81.65
2017-04-18T08:28:41.067Z,82.08
2017-04-18T08:29:21.955Z,82.12
2017-04-18T08:30:02.834Z,80.98
2017-04-18T08:30:43.723Z,80.79
2017-04-18T08:31:24.627Z,80.03
2017-04-18T08:32:05.503Z,79.97
2017-04-18T08:32:46.374Z,80.13
2017-04-18T08:33:27.255Z,79.65
2017-04-18T08:34:08.137Z,80.13
2017-04-18T08:34:49.015Z,80.13
2017-04-18T08:35:29.889Z,80.13
2017-04-18T08:36:10.781Z,79.55
2017-04-18T08:36:51.675Z,80.22
2017-04-18T08:37:32.552Z,80.51
2017-04-18T08:38:13.426Z,80.03
2017-04-18T08:38:54.302Z,80.13
2017-04-18T08:39:35.169Z,80.32
2017-04-18T08:40:16.040Z,79.55
2017-04-18T08:40:56.926Z,79.41
2017-04-18T08:41:37.797Z,78.17
2017-04-18T08:42:18.679Z,77.79
2017-04-18T08:42:59.547Z,77.79
2017-04-18T08:43:40.404Z,77.79
2017-04-18T08:44:21.276Z,77.89
2017-04-18T08:45:02.135Z,78.45
2017-04-18T08:45:42.976Z,78.03
2017-04-18T08:46:23.841Z,77.89
2017-04-18T08:47:04.712Z,77.84
2017-04-18T08:47:45.553Z,77.89
2017-04-18T08:48:26.425Z,77.31
2017-04-18T08:49:07.300Z,77.41
2017-04-18T08:49:48.157Z,76.93
2017-04-18T08:50:29.002Z,77.89
2017-04-18T08:51:09.888Z,77.41
2017-04-18T08:51:50.770Z,77.41
2017-04-18T08:52:31.632Z,77.41